Time;durP1;ratioP1;P1;durP2;ratioP2;P2;SDS_P1;SDS_P2;PMS_P1;PMS_P2;Temp;Humidity;BMP_temperature;BMP_pressure;BME280_temperature;BME280_humidity;BME280_pressure;Samples;Min_cycle;Max_cycle;Signal;HPM_P1;HPM_P2
2021/07/17 00:00:19;;;;;;;5.18;2.83;;;22.00;67.70;;;;;;4980620;28;20038;-80
2021/07/17 00:02:44;;;;;;;3.95;2.80;;;22.00;67.70;;;;;;4998000;28;20101;-80
2021/07/17 00:05:13;;;;;;;5.10;3.20;;;22.00;67.70;;;;;;4964959;28;20093;-79
2021/07/17 00:07:39;;;;;;;5.50;3.00;;;21.90;67.70;;;;;;4997802;28;20018;-79
2021/07/17 00:10:13;;;;;;;4.75;3.00;;;21.90;67.70;;;;;;4980184;28;20034;-79
2021/07/17 00:12:39;;;;;;;5.88;3.17;;;21.90;67.70;;;;;;4996334;28;20049;-78
2021/07/17 00:15:06;;;;;;;5.85;3.22;;;21.90;67.70;;;;;;4996012;28;20034;-78
2021/07/17 00:17:31;;;;;;;5.22;3.00;;;21.90;67.70;;;;;;4996120;28;20105;-79
2021/07/17 00:19:57;;;;;;;5.78;3.30;;;21.90;67.80;;;;;;4979542;28;20442;-79
2021/07/17 00:22:23;;;;;;;4.05;3.00;;;21.90;67.80;;;;;;4963336;28;20026;-78
2021/07/17 00:24:48;;;;;;;6.55;3.72;;;21.90;67.80;;;;;;4979874;28;20030;-79
2021/07/17 00:27:14;;;;;;;6.55;3.25;;;21.90;67.80;;;;;;4996152;28;20042;-80
2021/07/17 00:29:40;;;;;;;5.13;2.83;;;21.90;67.80;;;;;;4979647;28;20073;-79
2021/07/17 00:32:06;;;;;;;5.22;3.40;;;21.90;67.80;;;;;;4996084;28;20034;-79
2021/07/17 00:34:32;;;;;;;5.82;3.35;;;21.80;67.80;;;;;;4963493;28;20053;-79
2021/07/17 00:36:58;;;;;;;5.97;3.28;;;21.90;67.80;;;;;;4995689;28;20038;-79
2021/07/17 00:39:23;;;;;;;5.60;3.08;;;21.90;67.90;;;;;;4996866;28;20084;-79
2021/07/17 00:41:53;;;;;;;6.15;3.25;;;21.80;67.80;;;;;;4995544;28;20176;-79
2021/07/17 00:44:19;;;;;;;4.68;3.28;;;21.80;67.90;;;;;;4979665;28;20371;-80
2021/07/17 00:46:45;;;;;;;5.90;3.20;;;21.80;67.90;;;;;;4979296;28;20023;-79
2021/07/17 00:49:10;;;;;;;5.82;3.03;;;21.80;67.90;;;;;;4995261;28;20036;-79
2021/07/17 00:51:36;;;;;;;6.80;3.60;;;21.80;67.90;;;;;;4997111;28;20028;-79
2021/07/17 00:54:03;;;;;;;5.78;3.33;;;21.70;67.90;;;;;;4980025;28;20068;-80
2021/07/17 00:56:30;;;;;;;5.07;2.90;;;21.80;68.00;;;;;;4979047;28;20430;-79
2021/07/17 00:59:00;;;;;;;6.03;3.28;;;21.80;68.00;;;;;;4961843;28;20034;-79
2021/07/17 01:01:31;;;;;;;5.72;3.08;;;21.80;68.00;;;;;;4963105;28;20026;-79
2021/07/17 01:03:57;;;;;;;6.03;3.08;;;21.70;68.00;;;;;;4979048;28;20030;-80
2021/07/17 01:06:23;;;;;;;6.15;3.50;;;21.70;67.90;;;;;;4979185;28;20125;-80
2021/07/17 01:08:49;;;;;;;5.53;3.25;;;21.70;68.00;;;;;;4995233;28;20391;-79
2021/07/17 01:11:15;;;;;;;5.18;3.38;;;21.70;68.10;;;;;;4962751;28;20030;-79
2021/07/17 01:13:40;;;;;;;5.22;3.13;;;21.70;68.00;;;;;;4995018;28;20191;-79
2021/07/17 01:16:06;;;;;;;5.80;3.50;;;21.70;68.00;;;;;;4978294;28;20033;-79
2021/07/17 01:18:32;;;;;;;8.30;3.72;;;21.70;68.00;;;;;;4962361;28;20062;-78
2021/07/17 01:20:59;;;;;;;5.78;3.00;;;21.70;68.10;;;;;;4962731;28;20068;-79
2021/07/17 01:23:25;;;;;;;6.43;3.20;;;21.60;68.00;;;;;;4995251;28;20064;-79
2021/07/17 01:25:51;;;;;;;4.90;2.88;;;21.60;68.10;;;;;;4979064;28;20093;-79
2021/07/17 01:28:17;;;;;;;6.13;3.42;;;21.60;68.10;;;;;;4979606;28;20117;-79
2021/07/17 01:30:43;;;;;;;4.88;3.20;;;21.60;68.10;;;;;;4995810;28;20125;-79
2021/07/17 01:33:11;;;;;;;6.55;3.28;;;21.60;68.10;;;;;;4979225;28;20074;-79
2021/07/17 01:35:37;;;;;;;6.80;3.28;;;21.60;68.20;;;;;;4994885;28;20375;-79
2021/07/17 01:38:04;;;;;;;5.55;3.28;;;21.60;68.20;;;;;;4994484;28;20039;-79
2021/07/17 01:40:30;;;;;;;7.03;3.35;;;21.60;68.20;;;;;;4995719;28;20023;-79
2021/07/17 01:42:59;;;;;;;5.18;3.20;;;21.60;68.20;;;;;;4994580;28;20045;-77
2021/07/17 01:45:28;;;;;;;6.45;3.25;;;21.60;68.20;;;;;;4978256;28;20045;-79
2021/07/17 01:47:55;;;;;;;6.03;3.42;;;21.60;68.20;;;;;;4995574;28;20506;-79
2021/07/17 01:50:24;;;;;;;5.57;3.15;;;21.50;68.20;;;;;;4995015;28;20030;-80
2021/07/17 01:52:51;;;;;;;4.75;3.30;;;21.50;68.20;;;;;;4995281;28;20541;-79
2021/07/17 01:55:17;;;;;;;6.80;3.70;;;21.50;68.20;;;;;;4978386;28;20117;-79
2021/07/17 01:57:45;;;;;;;5.93;3.33;;;21.50;68.20;;;;;;4962680;28;20078;-79
2021/07/17 02:00:11;;;;;;;6.25;3.55;;;21.50;68.20;;;;;;4995026;28;20027;-79
2021/07/17 02:02:37;;;;;;;7.53;3.50;;;21.50;68.20;;;;;;4977885;28;20042;-79
2021/07/17 02:05:04;;;;;;;6.68;3.78;;;21.50;68.30;;;;;;4994643;28;20026;-79
2021/07/17 02:07:31;;;;;;;4.97;3.28;;;21.50;68.30;;;;;;4977895;28;20100;-78
2021/07/17 02:09:57;;;;;;;4.35;2.92;;;21.40;68.20;;;;;;4977654;28;20031;-79
2021/07/17 02:12:23;;;;;;;6.60;3.17;;;21.40;68.20;;;;;;4993987;28;20117;-79
2021/07/17 02:14:52;;;;;;;4.90;3.00;;;21.40;68.30;;;;;;4977715;28;20081;-79
2021/07/17 02:17:19;;;;;;;6.32;3.40;;;21.40;68.30;;;;;;4994212;28;20086;-79
2021/07/17 02:19:44;;;;;;;6.43;3.63;;;21.40;68.40;;;;;;4978258;28;20034;-79
2021/07/17 02:22:11;;;;;;;6.65;3.30;;;21.40;68.30;;;;;;4994667;28;20038;-79
2021/07/17 02:24:37;;;;;;;7.72;3.40;;;21.40;68.30;;;;;;4977362;28;20034;-79
2021/07/17 02:27:03;;;;;;;5.03;3.00;;;21.40;68.40;;;;;;4994273;28;20034;-79
2021/07/17 02:29:29;;;;;;;7.03;3.50;;;21.40;68.40;;;;;;4978038;28;20538;-79
2021/07/17 02:31:54;;;;;;;6.57;3.78;;;21.30;68.30;;;;;;4993739;28;20130;-79
2021/07/17 02:34:20;;;;;;;5.40;3.28;;;21.30;68.30;;;;;;4977699;28;20031;-79
2021/07/17 02:36:46;;;;;;;5.35;3.22;;;21.30;68.40;;;;;;4995221;28;20041;-79
2021/07/17 02:39:14;;;;;;;5.05;2.78;;;21.30;68.40;;;;;;4961920;28;20457;-79
2021/07/17 02:41:39;;;;;;;5.20;3.05;;;21.30;68.40;;;;;;4977647;28;20119;-79
2021/07/17 02:44:06;;;;;;;4.90;3.15;;;21.30;68.40;;;;;;4977284;28;20081;-79
2021/07/17 02:46:32;;;;;;;6.07;3.13;;;21.30;68.50;;;;;;4977357;28;20034;-79
2021/07/17 02:48:58;;;;;;;5.90;3.63;;;21.30;68.50;;;;;;4995416;28;20027;-79
2021/07/17 02:51:24;;;;;;;4.88;3.15;;;21.20;68.40;;;;;;4993354;28;20037;-79
2021/07/17 02:53:51;;;;;;;7.30;3.10;;;21.20;68.40;;;;;;4993701;28;20034;-79
2021/07/17 02:56:17;;;;;;;5.38;3.15;;;21.20;68.50;;;;;;4961279;28;20098;-79
2021/07/17 02:58:43;;;;;;;5.13;3.00;;;21.20;68.50;;;;;;4993686;28;20085;-79
2021/07/17 03:01:08;;;;;;;5.18;3.08;;;21.20;68.50;;;;;;4993237;28;20121;-79
2021/07/17 03:03:34;;;;;;;4.38;2.90;;;21.20;68.50;;;;;;4994847;28;20018;-79
2021/07/17 03:06:00;;;;;;;5.40;3.20;;;21.20;68.50;;;;;;4993164;28;20125;-79
2021/07/17 03:08:25;;;;;;;5.10;3.33;;;21.20;68.50;;;;;;4994297;28;20105;-79
2021/07/17 03:10:53;;;;;;;5.15;3.15;;;21.20;68.60;;;;;;4993137;28;20042;-79
2021/07/17 03:13:19;;;;;;;5.18;3.13;;;21.20;68.60;;;;;;4976832;28;20525;-79
2021/07/17 03:15:47;;;;;;;6.10;3.30;;;21.20;68.60;;;;;;4977469;28;20038;-79
2021/07/17 03:18:13;;;;;;;6.50;3.00;;;21.10;68.60;;;;;;4993468;28;20145;-79
2021/07/17 03:20:39;;;;;;;6.38;3.30;;;21.10;68.60;;;;;;4994198;28;20235;-79
2021/07/17 03:23:05;;;;;;;5.70;3.00;;;21.10;68.60;;;;;;4976923;28;20038;-79
2021/07/17 03:25:31;;;;;;;4.53;2.97;;;21.10;68.60;;;;;;4992636;28;20043;-80
2021/07/17 03:27:57;;;;;;;4.03;2.67;;;21.10;68.60;;;;;;4976750;28;20102;-80
2021/07/17 03:30:23;;;;;;;6.43;3.40;;;21.10;68.60;;;;;;4994044;28;20073;-79
2021/07/17 03:32:49;;;;;;;5.18;3.33;;;21.10;68.60;;;;;;4994031;28;20038;-78
2021/07/17 03:35:15;;;;;;;4.90;3.22;;;21.00;68.60;;;;;;4992888;28;20391;-79
2021/07/17 03:37:40;;;;;;;5.72;3.20;;;21.00;68.70;;;;;;4993906;28;20045;-79
2021/07/17 03:40:07;;;;;;;5.72;2.92;;;21.10;68.70;;;;;;4992732;28;20027;-79
2021/07/17 03:42:33;;;;;;;5.85;3.15;;;21.10;68.70;;;;;;4992794;28;20031;-79
2021/07/17 03:44:58;;;;;;;6.43;3.58;;;21.00;68.70;;;;;;4976759;28;20022;-79
2021/07/17 03:47:24;;;;;;;5.03;2.95;;;21.00;68.70;;;;;;4993999;28;20436;-79
2021/07/17 03:49:50;;;;;;;5.47;3.15;;;21.00;68.70;;;;;;4992804;28;20030;-79
2021/07/17 03:52:16;;;;;;;4.95;3.00;;;21.00;68.70;;;;;;4976613;28;20375;-79
2021/07/17 03:54:42;;;;;;;6.85;3.00;;;21.00;68.70;;;;;;4976643;28;20463;-79
2021/07/17 03:57:08;;;;;;;5.15;3.20;;;21.00;68.70;;;;;;4976535;28;20050;-79
2021/07/17 03:59:34;;;;;;;6.10;2.90;;;20.90;68.70;;;;;;4960240;28;20494;-79
2021/07/17 04:02:00;;;;;;;4.60;2.90;;;21.00;68.80;;;;;;4976951;28;20031;-79
2021/07/17 04:04:26;;;;;;;4.80;3.00;;;20.90;68.70;;;;;;4992537;28;20034;-78
2021/07/17 04:06:52;;;;;;;4.15;2.70;;;20.90;68.70;;;;;;4976300;28;20038;-79
2021/07/17 04:09:17;;;;;;;4.18;3.00;;;20.90;68.70;;;;;;4976249;28;20035;-79
2021/07/17 04:11:43;;;;;;;4.18;2.65;;;20.90;68.80;;;;;;4976414;28;20027;-79
2021/07/17 04:14:09;;;;;;;5.88;2.70;;;20.90;68.80;;;;;;4976395;28;20031;-79
2021/07/17 04:16:35;;;;;;;5.32;2.97;;;20.80;68.70;;;;;;4975737;28;20059;-80
2021/07/17 04:19:01;;;;;;;4.63;2.90;;;20.90;68.80;;;;;;4976426;28;20521;-79
2021/07/17 04:21:26;;;;;;;6.53;3.08;;;20.80;68.70;;;;;;4976353;28;20128;-79
2021/07/17 04:23:52;;;;;;;5.10;3.00;;;20.80;68.80;;;;;;4993594;28;20033;-79
2021/07/17 04:26:18;;;;;;;4.55;2.67;;;20.80;68.80;;;;;;4993662;28;20041;-80
2021/07/17 04:28:43;;;;;;;5.47;3.10;;;20.80;68.80;;;;;;4992201;28;20057;-79
2021/07/17 04:31:09;;;;;;;5.60;2.80;;;20.80;68.80;;;;;;4992426;28;20030;-78
2021/07/17 04:33:35;;;;;;;6.97;2.92;;;20.80;68.90;;;;;;4992411;28;20041;-80
2021/07/17 04:36:01;;;;;;;4.70;3.08;;;20.80;68.90;;;;;;4995487;28;20038;-79
2021/07/17 04:38:27;;;;;;;4.55;2.97;;;20.70;68.90;;;;;;4963500;28;20069;-79
2021/07/17 04:40:52;;;;;;;5.05;2.88;;;20.70;68.90;;;;;;4995572;28;20471;-79
2021/07/17 04:43:18;;;;;;;5.63;3.05;;;20.70;68.90;;;;;;4995635;28;20058;-79
2021/07/17 04:45:44;;;;;;;4.50;2.83;;;20.70;68.90;;;;;;4963147;28;20029;-79
2021/07/17 04:48:10;;;;;;;3.85;2.53;;;20.70;68.90;;;;;;4979259;28;20038;-79
2021/07/17 04:50:37;;;;;;;6.10;2.70;;;20.70;68.90;;;;;;4995807;28;20113;-80
2021/07/17 04:53:04;;;;;;;5.15;3.10;;;20.70;69.00;;;;;;4979302;28;20037;-79
2021/07/17 04:55:30;;;;;;;5.55;3.00;;;20.70;69.00;;;;;;4962975;28;20037;-79
2021/07/17 04:57:55;;;;;;;3.88;2.45;;;20.70;69.00;;;;;;4995672;28;20427;-79
2021/07/17 05:00:21;;;;;;;4.75;2.50;;;20.60;69.00;;;;;;4995040;28;20027;-79
2021/07/17 05:02:47;;;;;;;5.65;3.05;;;20.60;69.00;;;;;;4979938;28;20088;-79
2021/07/17 05:05:15;;;;;;;5.13;2.85;;;20.60;69.00;;;;;;4996830;28;20363;-79
2021/07/17 05:07:40;;;;;;;4.63;2.67;;;20.60;69.00;;;;;;4997685;28;20062;-79
2021/07/17 05:10:07;;;;;;;4.70;2.65;;;20.60;69.00;;;;;;4963656;28;20429;-79
2021/07/17 05:12:32;;;;;;;5.80;2.95;;;20.60;69.10;;;;;;4980035;28;20081;-79
2021/07/17 05:14:58;;;;;;;5.65;3.08;;;20.60;69.10;;;;;;4978971;28;20456;-79
2021/07/17 05:17:24;;;;;;;4.90;2.95;;;20.60;69.10;;;;;;4962854;28;20081;-79
2021/07/17 05:19:49;;;;;;;4.05;2.70;;;20.60;69.20;;;;;;4978963;28;20570;-78
2021/07/17 05:22:15;;;;;;;5.90;2.80;;;20.50;69.30;;;;;;4978849;28;20395;-78
2021/07/17 05:24:41;;;;;;;4.13;2.53;;;20.50;69.30;;;;;;4994874;28;20057;-79
2021/07/17 05:27:06;;;;;;;4.80;2.70;;;20.50;69.30;;;;;;4978847;28;20525;-78
2021/07/17 05:29:32;;;;;;;5.88;2.90;;;20.60;69.30;;;;;;4994733;28;20545;-79
2021/07/17 05:31:58;;;;;;;5.20;2.88;;;20.50;69.20;;;;;;4995561;28;20045;-79
2021/07/17 05:34:24;;;;;;;4.82;2.65;;;20.50;69.30;;;;;;4995260;28;20037;-79
2021/07/17 05:36:49;;;;;;;5.13;2.60;;;20.50;69.30;;;;;;4978699;28;20042;-78
2021/07/17 05:39:15;;;;;;;4.93;2.90;;;20.60;69.30;;;;;;4978063;28;20121;-79
2021/07/17 05:41:41;;;;;;;5.13;2.53;;;20.50;69.90;;;;;;4994855;28;20026;-79
2021/07/17 05:44:06;;;;;;;4.65;2.83;;;20.50;69.30;;;;;;4994415;28;20038;-78
2021/07/17 05:46:32;;;;;;;5.32;2.88;;;20.60;69.40;;;;;;4995464;28;20038;-79
2021/07/17 05:48:58;;;;;;;6.28;2.80;;;20.50;69.40;;;;;;4994507;28;20030;-79
2021/07/17 05:51:23;;;;;;;4.53;2.53;;;20.50;69.50;;;;;;4978270;28;20131;-79
2021/07/17 05:53:49;;;;;;;5.90;2.80;;;20.50;69.50;;;;;;4978165;28;20465;-79
2021/07/17 05:56:15;;;;;;;4.20;2.75;;;20.50;69.50;;;;;;4978049;28;20058;-79
2021/07/17 05:58:41;;;;;;;4.10;2.65;;;20.50;69.50;;;;;;4994070;28;20031;-79
2021/07/17 06:01:06;;;;;;;4.18;2.60;;;20.50;69.50;;;;;;4961939;28;20061;-79
2021/07/17 06:03:32;;;;;;;3.53;2.25;;;20.50;69.50;;;;;;4994907;28;20374;-79
2021/07/17 06:05:58;;;;;;;5.05;2.55;;;20.50;69.60;;;;;;4961724;28;20045;-79
2021/07/17 06:08:24;;;;;;;6.00;3.15;;;20.50;69.60;;;;;;4977828;28;20030;-79
2021/07/17 06:10:49;;;;;;;4.70;2.97;;;20.50;69.60;;;;;;4978049;28;20494;-79
2021/07/17 06:13:15;;;;;;;4.38;2.50;;;20.50;69.70;;;;;;4961697;28;20034;-79
2021/07/17 06:15:41;;;;;;;4.97;2.47;;;20.50;69.70;;;;;;4995058;28;20053;-79
2021/07/17 06:18:07;;;;;;;3.60;2.35;;;20.50;69.70;;;;;;4977457;28;20487;-79
2021/07/17 06:20:33;;;;;;;4.15;2.70;;;20.50;69.70;;;;;;4993979;28;20030;-79
2021/07/17 06:22:58;;;;;;;5.18;2.78;;;20.60;69.80;;;;;;4977626;28;20045;-79
2021/07/17 06:25:24;;;;;;;5.93;2.67;;;20.60;69.80;;;;;;4977664;28;20035;-79
2021/07/17 06:27:50;;;;;;;4.22;2.45;;;20.60;69.90;;;;;;4961990;28;20411;-79
2021/07/17 06:30:16;;;;;;;5.45;2.83;;;20.60;69.90;;;;;;4977407;28;20026;-78
2021/07/17 06:32:42;;;;;;;4.68;2.65;;;20.60;69.90;;;;;;4976663;28;20080;-79
2021/07/17 06:35:08;;;;;;;5.88;2.83;;;20.60;70.00;;;;;;4977561;28;20038;-78
2021/07/17 06:37:35;;;;;;;3.80;2.50;;;20.60;70.00;;;;;;4977396;28;20043;-79
2021/07/17 06:40:01;;;;;;;4.63;2.70;;;20.60;70.00;;;;;;4977224;28;20034;-79
2021/07/17 06:42:27;;;;;;;3.58;2.20;;;20.60;70.10;;;;;;4945217;28;20057;-78
2021/07/17 06:44:52;;;;;;;3.97;2.40;;;20.60;70.20;;;;;;4977812;28;20533;-79
2021/07/17 06:47:18;;;;;;;3.40;2.25;;;20.60;70.20;;;;;;4960960;28;20430;-79
2021/07/17 06:49:44;;;;;;;5.22;2.80;;;20.60;70.20;;;;;;4994151;28;20372;-79
2021/07/17 06:52:10;;;;;;;4.07;2.30;;;20.60;70.20;;;;;;4993766;28;20030;-79
2021/07/17 06:54:35;;;;;;;4.47;2.22;;;20.60;70.30;;;;;;4976961;28;20070;-79
2021/07/17 06:57:01;;;;;;;3.85;2.53;;;20.70;70.30;;;;;;4976280;28;20030;-78
2021/07/17 06:59:27;;;;;;;4.95;2.38;;;20.70;70.30;;;;;;4977093;28;20038;-82
2021/07/17 07:01:52;;;;;;;6.30;3.00;;;20.70;70.30;;;;;;4992926;28;20109;-79
2021/07/17 07:04:18;;;;;;;3.83;2.33;;;20.70;70.30;;;;;;4993452;28;20041;-78
2021/07/17 07:06:44;;;;;;;4.40;2.50;;;20.70;70.50;;;;;;4976911;28;20027;-79
2021/07/17 07:09:09;;;;;;;4.25;2.40;;;20.70;70.60;;;;;;4960788;28;20479;-78
2021/07/17 07:11:39;;;;;;;3.72;2.33;;;20.70;70.80;;;;;;4961007;28;20026;-79
2021/07/17 07:14:05;;;;;;;4.30;2.25;;;20.80;71.00;;;;;;4961392;28;20133;-80
2021/07/17 07:16:31;;;;;;;5.28;2.63;;;20.80;71.00;;;;;;4977232;28;20042;-79
2021/07/17 07:18:57;;;;;;;4.68;2.38;;;20.80;71.10;;;;;;4994237;28;20468;-78
2021/07/17 07:21:22;;;;;;;4.65;2.75;;;20.80;71.10;;;;;;4993104;28;20488;-79
2021/07/17 07:23:48;;;;;;;4.50;2.58;;;20.90;71.80;;;;;;4976800;28;20041;-79
2021/07/17 07:26:14;;;;;;;4.28;2.30;;;20.90;71.20;;;;;;4976538;28;20442;-79
2021/07/17 07:28:40;;;;;;;3.55;2.50;;;20.90;71.30;;;;;;4960797;28;20117;-78
2021/07/17 07:31:05;;;;;;;4.50;2.30;;;20.90;71.30;;;;;;4960530;28;20038;-79
2021/07/17 07:33:31;;;;;;;5.60;3.17;;;20.90;72.00;;;;;;4994675;28;20490;-79
2021/07/17 07:35:57;;;;;;;5.25;2.33;;;21.00;72.10;;;;;;4976795;28;20061;-79
2021/07/17 07:38:22;;;;;;;4.90;2.67;;;21.00;71.40;;;;;;4976930;28;20038;-78
2021/07/17 07:40:48;;;;;;;4.80;2.58;;;21.00;71.40;;;;;;4977205;28;20034;-77
2021/07/17 07:43:14;;;;;;;4.93;2.50;;;21.00;71.40;;;;;;4976464;28;20035;-77
2021/07/17 07:45:40;;;;;;;4.05;2.38;;;21.10;71.40;;;;;;4976535;28;20026;-77
2021/07/17 07:48:06;;;;;;;5.18;2.45;;;21.20;71.50;;;;;;4992798;28;20049;-80
2021/07/17 07:50:32;;;;;;;3.50;2.15;;;21.20;71.40;;;;;;4992567;28;20442;-78
2021/07/17 07:52:59;;;;;;;4.45;2.17;;;21.20;71.30;;;;;;4976484;28;20125;-79
2021/07/17 07:55:24;;;;;;;5.00;2.50;;;21.20;71.20;;;;;;4976465;28;20065;-78
2021/07/17 07:57:50;;;;;;;5.00;2.47;;;21.30;71.20;;;;;;4976288;28;20074;-78
2021/07/17 08:00:17;;;;;;;2.58;1.80;;;21.40;71.10;;;;;;4993298;28;20027;-78
2021/07/17 08:02:43;;;;;;;3.35;2.40;;;21.40;71.00;;;;;;4992888;28;20026;-77
2021/07/17 08:05:10;;;;;;;4.20;2.20;;;21.50;71.00;;;;;;4976506;28;20460;-78
2021/07/17 08:07:36;;;;;;;5.28;2.50;;;21.50;70.70;;;;;;4960355;28;20040;-77
2021/07/17 08:10:03;;;;;;;4.22;2.40;;;21.60;70.60;;;;;;4964620;28;20117;-76
2021/07/17 08:12:29;;;;;;;3.90;2.17;;;21.70;70.40;;;;;;4996822;28;20125;-77
2021/07/17 08:14:55;;;;;;;3.63;1.98;;;21.70;70.20;;;;;;4979824;28;20045;-78
2021/07/17 08:17:21;;;;;;;3.80;2.20;;;21.80;70.10;;;;;;4995962;28;20050;-74
2021/07/17 08:19:47;;;;;;;3.92;1.83;;;21.90;69.80;;;;;;4963612;28;20034;-78
2021/07/17 08:22:12;;;;;;;4.00;2.15;;;22.00;69.70;;;;;;4996091;28;20459;-76
2021/07/17 08:24:38;;;;;;;3.72;2.17;;;22.00;69.40;;;;;;4964357;28;20030;-74
2021/07/17 08:27:05;;;;;;;3.00;1.92;;;22.10;69.20;;;;;;4979877;28;20031;-78
2021/07/17 08:29:31;;;;;;;4.15;2.10;;;22.10;69.10;;;;;;4995851;28;20046;-79
2021/07/17 08:31:57;;;;;;;3.30;1.80;;;22.20;68.80;;;;;;4996024;28;20034;-77
2021/07/17 08:34:23;;;;;;;3.85;1.52;;;22.30;68.60;;;;;;4979649;28;20541;-77
2021/07/17 08:36:48;;;;;;;3.45;1.83;;;22.40;68.40;;;;;;4996930;28;20038;-78
2021/07/17 08:39:14;;;;;;;2.75;1.80;;;22.50;68.10;;;;;;4979562;28;20435;-79
2021/07/17 08:41:47;;;;;;;3.67;1.80;;;22.50;67.80;;;;;;4996276;28;20035;-77
2021/07/17 08:44:14;;;;;;;4.90;2.10;;;22.60;67.60;;;;;;4996912;28;20058;-77
2021/07/17 08:46:41;;;;;;;4.10;1.98;;;22.70;67.50;;;;;;4996805;28;20034;-77
2021/07/17 08:49:07;;;;;;;3.40;1.90;;;22.70;67.30;;;;;;4979178;28;20050;-77
2021/07/17 08:51:32;;;;;;;1.83;1.58;;;22.90;67.20;;;;;;4979843;28;20030;-77
2021/07/17 08:54:00;;;;;;;3.40;1.67;;;22.90;67.00;;;;;;4995441;28;20042;-77
2021/07/17 08:56:25;;;;;;;3.42;1.50;;;23.00;66.80;;;;;;4978933;28;20034;-77
2021/07/17 08:58:51;;;;;;;2.13;1.58;;;23.10;66.60;;;;;;4963159;28;20035;-77
2021/07/17 09:01:17;;;;;;;2.78;1.50;;;23.10;66.50;;;;;;4979200;28;20502;-77
2021/07/17 09:03:43;;;;;;;3.70;1.48;;;23.20;66.30;;;;;;4979428;28;20363;-77
2021/07/17 09:06:09;;;;;;;2.17;1.27;;;23.30;66.10;;;;;;4978706;28;20050;-79
2021/07/17 09:08:35;;;;;;;2.22;1.42;;;23.40;66.00;;;;;;4996359;28;20030;-77
2021/07/17 09:11:01;;;;;;;2.50;1.60;;;23.50;65.80;;;;;;4978897;28;20049;-77
2021/07/17 09:13:35;;;;;;;3.13;1.42;;;23.50;65.60;;;;;;4995254;28;20031;-76
2021/07/17 09:16:05;;;;;;;2.88;1.50;;;23.60;65.40;;;;;;4995642;28;20042;-74
2021/07/17 09:18:50;;;;;;;3.13;1.42;;;23.70;65.00;;;;;;4962413;28;20054;-76
2021/07/17 09:21:31;;;;;;;1.35;1.15;;;23.80;64.70;;;;;;4978348;28;20402;-75
2021/07/17 09:24:09;;;;;;;3.22;1.40;;;23.90;64.60;;;;;;4978448;28;20033;-75
2021/07/17 09:26:38;;;;;;;2.92;1.35;;;23.90;64.30;;;;;;4978966;28;20110;-75
2021/07/17 09:29:06;;;;;;;1.98;1.30;;;24.00;64.00;;;;;;4979246;28;20038;-77
2021/07/17 09:31:33;;;;;;;1.75;1.27;;;24.10;63.90;;;;;;4978552;28;20384;-76
2021/07/17 09:34:10;;;;;;;1.92;1.30;;;24.20;63.70;;;;;;4995957;28;20026;-75
2021/07/17 09:37:05;;;;;;;3.08;1.38;;;24.30;63.60;;;;;;4978222;28;20034;-76
2021/07/17 09:39:36;;;;;;;1.35;1.13;;;24.40;63.30;;;;;;4978470;28;20030;-75
2021/07/17 09:42:04;;;;;;;1.40;1.15;;;24.50;63.10;;;;;;4996325;28;20034;-76
2021/07/17 09:44:31;;;;;;;1.67;0.98;;;24.60;63.00;;;;;;4994488;28;20026;-78
2021/07/17 09:46:57;;;;;;;2.00;1.13;;;24.60;62.80;;;;;;4995112;28;20057;-75
2021/07/17 09:49:25;;;;;;;3.95;1.08;;;24.70;62.70;;;;;;4978016;28;20026;-76
2021/07/17 09:52:08;;;;;;;4.43;1.17;;;24.80;62.70;;;;;;4962122;28;20550;-76
2021/07/17 09:54:34;;;;;;;1.67;0.95;;;24.90;62.60;;;;;;4977811;28;20062;-75
2021/07/17 09:57:01;;;;;;;2.13;0.90;;;25.00;62.20;;;;;;4962662;28;20053;-78
2021/07/17 09:59:27;;;;;;;2.38;1.10;;;25.10;62.00;;;;;;4961878;28;20073;-76
2021/07/17 10:01:53;;;;;;;2.65;1.05;;;25.10;62.50;;;;;;4994188;28;20101;-77
2021/07/17 10:04:19;;;;;;;1.38;1.08;;;25.20;61.70;;;;;;4994231;28;20041;-77
2021/07/17 10:07:01;;;;;;;1.83;1.20;;;25.30;61.50;;;;;;4994228;28;20403;-76
2021/07/17 10:09:35;;;;;;;3.00;1.35;;;25.40;61.30;;;;;;4961858;28;20455;-77
2021/07/17 10:12:04;;;;;;;1.23;0.85;;;25.40;60.90;;;;;;4961844;28;20065;-76
2021/07/17 10:14:33;;;;;;;1.30;0.90;;;25.50;60.90;;;;;;4977861;28;20018;-76
2021/07/17 10:17:04;;;;;;;1.20;1.05;;;25.60;60.60;;;;;;4994731;28;20061;-76
2021/07/17 10:19:30;;;;;;;1.38;0.95;;;25.60;60.40;;;;;;4995485;28;20034;-78
2021/07/17 10:21:56;;;;;;;2.42;1.20;;;25.70;60.30;;;;;;4977641;28;20438;-76
2021/07/17 10:24:23;;;;;;;2.22;1.20;;;25.80;60.00;;;;;;4993658;28;20109;-76
2021/07/17 10:26:52;;;;;;;1.38;1.05;;;25.90;60.00;;;;;;4977681;28;20459;-77
2021/07/17 10:29:18;;;;;;;4.00;1.27;;;25.90;59.70;;;;;;4977226;28;20460;-76
2021/07/17 10:31:46;;;;;;;2.22;1.15;;;26.00;59.50;;;;;;4961347;28;20022;-76
2021/07/17 10:34:13;;;;;;;1.45;1.02;;;26.10;59.30;;;;;;4994183;28;20098;-77
2021/07/17 10:36:47;;;;;;;1.70;0.85;;;26.20;59.20;;;;;;4994716;28;20488;-76
2021/07/17 10:39:15;;;;;;;2.03;1.10;;;26.20;59.00;;;;;;4993759;28;20034;-75
2021/07/17 10:41:44;;;;;;;2.13;1.10;;;26.30;59.00;;;;;;4977166;28;20029;-75
2021/07/17 10:44:10;;;;;;;1.40;1.10;;;26.40;58.70;;;;;;4977370;28;20034;-76
2021/07/17 10:46:39;;;;;;;1.80;1.00;;;26.40;58.50;;;;;;4977200;28;20040;-76
2021/07/17 10:49:08;;;;;;;1.92;1.23;;;26.50;58.50;;;;;;4994590;28;20559;-75
2021/07/17 10:51:36;;;;;;;1.27;0.90;;;26.60;58.60;;;;;;4977332;28;20031;-76
2021/07/17 10:54:05;;;;;;;1.35;0.88;;;26.60;58.30;;;;;;4994992;28;20022;-76
2021/07/17 10:56:32;;;;;;;2.35;0.93;;;26.70;58.30;;;;;;4994371;28;20029;-75
2021/07/17 10:59:12;;;;;;;2.15;1.00;;;26.80;58.20;;;;;;4977692;28;20406;-80
2021/07/17 11:02:02;;;;;;;1.85;1.27;;;26.80;57.80;;;;;;4993460;28;20122;-76
2021/07/17 11:04:44;;;;;;;1.70;1.25;;;26.90;57.80;;;;;;4993323;28;20031;-79
2021/07/17 11:07:16;;;;;;;2.00;0.98;;;27.00;57.60;;;;;;4977189;28;20031;-75
2021/07/17 11:09:57;;;;;;;1.67;0.98;;;27.10;57.30;;;;;;4993531;28;20041;-79
2021/07/17 11:12:26;;;;;;;1.23;0.90;;;27.10;57.20;;;;;;4976857;28;20037;-77
2021/07/17 11:15:19;;;;;;;1.15;0.82;;;27.20;57.20;;;;;;4994222;28;20026;-77
2021/07/17 11:17:47;;;;;;;0.80;0.80;;;27.20;57.10;;;;;;4994223;28;20053;-77
2021/07/17 11:20:19;;;;;;;2.30;1.20;;;27.30;57.00;;;;;;4994447;28;20038;-78
2021/07/17 11:22:46;;;;;;;1.45;1.10;;;27.30;56.90;;;;;;4992816;28;20035;-77
2021/07/17 11:25:16;;;;;;;2.35;0.93;;;27.40;56.90;;;;;;4993803;28;20390;-78
2021/07/17 11:27:43;;;;;;;1.05;0.90;;;27.40;56.90;;;;;;4993025;28;20070;-75
2021/07/17 11:30:18;;;;;;;1.80;1.00;;;27.40;56.70;;;;;;4976791;28;20042;-76
2021/07/17 11:33:05;;;;;;;2.28;1.10;;;27.50;56.80;;;;;;4994279;28;20122;-75
2021/07/17 11:35:39;;;;;;;1.20;0.90;;;27.50;56.70;;;;;;4992834;28;20023;-76
2021/07/17 11:38:07;;;;;;;1.45;0.75;;;27.60;56.40;;;;;;4994441;28;20069;-76
2021/07/17 11:40:34;;;;;;;1.10;0.90;;;27.60;56.30;;;;;;4992706;28;20490;-76
2021/07/17 11:43:11;;;;;;;1.50;1.00;;;27.60;56.30;;;;;;4977903;28;20442;-76
2021/07/17 11:45:38;;;;;;;1.38;0.80;;;27.60;56.30;;;;;;4981571;28;20034;-77
2021/07/17 11:48:08;;;;;;;1.38;1.05;;;27.60;56.40;;;;;;4997369;28;20101;-81
2021/07/17 11:50:35;;;;;;;1.95;1.10;;;27.60;56.30;;;;;;4980429;28;20498;-81
2021/07/17 11:53:19;;;;;;;1.30;1.02;;;27.70;56.90;;;;;;4980619;28;20113;-79
2021/07/17 11:56:00;;;;;;;1.00;0.95;;;27.70;57.50;;;;;;4980329;28;20034;-78
2021/07/17 11:58:29;;;;;;;1.38;0.93;;;27.70;57.90;;;;;;4997116;28;20041;-78
2021/07/17 12:01:04;;;;;;;1.90;1.10;;;27.80;58.20;;;;;;4996358;28;20137;-78
2021/07/17 12:03:30;;;;;;;1.27;1.00;;;27.80;58.60;;;;;;4964137;28;20037;-79
2021/07/17 12:05:55;;;;;;;1.50;0.98;;;27.90;58.90;;;;;;4980124;28;20406;-78
2021/07/17 12:08:22;;;;;;;1.42;1.10;;;27.90;58.90;;;;;;4963738;28;20401;-79
2021/07/17 12:10:47;;;;;;;1.73;1.00;;;27.90;58.90;;;;;;4980086;28;20030;-78
2021/07/17 12:13:13;;;;;;;2.15;1.10;;;27.90;58.90;;;;;;4980118;28;20034;-78
2021/07/17 12:15:41;;;;;;;1.65;1.08;;;28.00;59.20;;;;;;4980103;28;20438;-79
2021/07/17 12:18:10;;;;;;;0.90;0.90;;;28.00;59.30;;;;;;4997342;28;20058;-78
2021/07/17 12:20:41;;;;;;;1.90;1.10;;;28.10;59.50;;;;;;4979935;28;20084;-79
2021/07/17 12:23:13;;;;;;;1.38;0.80;;;28.10;59.60;;;;;;4980042;28;20030;-78
2021/07/17 12:25:42;;;;;;;0.80;0.80;;;28.10;59.70;;;;;;4997248;28;20069;-79
2021/07/17 12:28:18;;;;;;;1.20;0.88;;;28.10;59.80;;;;;;4979529;28;20546;-79
2021/07/17 12:30:49;;;;;;;1.00;0.90;;;28.10;59.90;;;;;;4997311;28;20070;-79
2021/07/17 12:33:36;;;;;;;3.10;1.10;;;28.10;60.00;;;;;;4979554;28;20113;-79
2021/07/17 12:36:19;;;;;;;1.63;1.05;;;28.20;60.20;;;;;;4980300;28;20030;-78
2021/07/17 12:38:52;;;;;;;2.23;1.30;;;28.10;60.00;;;;;;4979272;28;20129;-79
2021/07/17 12:41:29;;;;;;;1.00;0.90;;;28.20;60.10;;;;;;4997047;28;20333;-79
2021/07/17 12:43:58;;;;;;;1.13;0.77;;;28.20;60.10;;;;;;4995715;28;20034;-79
2021/07/17 12:46:30;;;;;;;1.48;0.85;;;28.20;60.10;;;;;;4980063;28;20034;-78
2021/07/17 12:49:03;;;;;;;0.80;0.80;;;28.20;60.20;;;;;;4979459;28;20109;-79